createdAt,value
2022-11-13T00:01:36.986Z,247.40
2022-11-13T00:04:04.693Z,255.47
2022-11-13T00:06:33.340Z,223.20
2022-11-13T00:09:02.329Z,237.27
2022-11-13T00:11:30.026Z,215.30
2022-11-13T00:13:57.664Z,241.60
2022-11-13T00:16:25.275Z,228.27
2022-11-13T00:18:52.951Z,226.27
2022-11-13T00:21:22.781Z,237.90
2022-11-13T00:23:51.497Z,238.20
2022-11-13T00:26:21.910Z,226.03
2022-11-13T00:28:54.299Z,268.47
2022-11-13T00:31:22.387Z,231.60
2022-11-13T00:34:25.813Z,248.60
2022-11-13T00:36:38.104Z,250.70
2022-11-13T00:39:05.789Z,246.97
2022-11-13T00:41:35.283Z,244.00
2022-11-13T00:44:04.006Z,249.33
2022-11-13T00:46:31.684Z,219.43
2022-11-13T00:48:59.368Z,254.17
2022-11-13T00:51:27.023Z,207.17
2022-11-13T00:53:54.678Z,233.70
2022-11-13T00:56:22.356Z,249.10
2022-11-13T00:58:51.369Z,230.17
2022-11-13T01:01:20.652Z,236.80
2022-11-13T01:03:48.368Z,252.03
2022-11-13T01:06:18.544Z,210.27
2022-11-13T01:08:46.236Z,268.80
2022-11-13T01:11:16.228Z,232.47
2022-11-13T01:13:45.273Z,212.73
2022-11-13T01:16:14.969Z,223.77
2022-11-13T01:18:43.239Z,232.40
2022-11-13T01:21:12.631Z,240.13
2022-11-13T01:23:40.401Z,228.27
2022-11-13T01:26:09.626Z,232.87
2022-11-13T01:28:37.717Z,252.50
2022-11-13T01:31:06.521Z,211.67
2022-11-13T01:33:35.848Z,232.87
2022-11-13T01:36:05.156Z,241.20
2022-11-13T01:38:36.226Z,243.90
2022-11-13T01:41:05.158Z,245.40
2022-11-13T01:43:34.512Z,209.23
2022-11-13T01:46:21.428Z,235.67
2022-11-13T01:48:52.909Z,216.87
2022-11-13T01:51:25.652Z,231.03
2022-11-13T01:53:54.177Z,207.10
2022-11-13T01:56:22.610Z,249.33
2022-11-13T01:58:54.288Z,237.03
2022-11-13T02:01:21.965Z,214.47
2022-11-13T02:03:51.012Z,205.43
2022-11-13T02:06:18.781Z,233.50
2022-11-13T02:08:46.421Z,239.10
2022-11-13T02:11:14.430Z,233.97
2022-11-13T02:13:42.273Z,239.27
2022-11-13T02:16:10.501Z,231.17
2022-11-13T02:18:38.488Z,218.70
2022-11-13T02:21:16.216Z,234.07
2022-11-13T02:23:47.572Z,233.13
2022-11-13T02:26:17.758Z,231.60
2022-11-13T02:28:45.919Z,263.87
2022-11-13T02:31:14.829Z,245.50
2022-11-13T02:33:42.535Z,250.43
2022-11-13T02:36:10.928Z,241.20
2022-11-13T02:38:39.752Z,262.07
2022-11-13T02:41:07.520Z,260.67
2022-11-13T02:43:36.792Z,220.50
2022-11-13T02:46:04.970Z,245.87
2022-11-13T02:48:32.704Z,204.20
2022-11-13T02:51:00.372Z,260.23
2022-11-13T02:53:28.008Z,238.77
2022-11-13T02:55:55.676Z,220.30
2022-11-13T02:58:23.300Z,224.37
2022-11-13T03:00:52.396Z,241.00
2022-11-13T03:03:41.021Z,246.47
2022-11-13T03:06:07.772Z,213.70
2022-11-13T03:08:36.478Z,241.47
2022-11-13T03:11:08.558Z,220.23
2022-11-13T03:13:36.356Z,254.13
2022-11-13T03:16:13.899Z,208.43
2022-11-13T03:18:41.835Z,266.83
2022-11-13T03:21:11.168Z,240.70
2022-11-13T03:23:38.885Z,210.97
2022-11-13T03:26:08.021Z,232.43
2022-11-13T03:28:35.900Z,232.27
2022-11-13T03:31:04.733Z,215.93
2022-11-13T03:33:34.220Z,231.43
2022-11-13T03:36:01.951Z,241.80
2022-11-13T03:38:29.942Z,251.13
2022-11-13T03:40:58.010Z,246.87
2022-11-13T03:43:25.674Z,231.20
2022-11-13T03:45:53.301Z,213.77
2022-11-13T03:48:20.964Z,253.53
2022-11-13T03:50:54.495Z,244.73
2022-11-13T03:53:22.172Z,241.93
2022-11-13T03:55:49.839Z,230.23
2022-11-13T03:58:17.641Z,245.40
2022-11-13T04:00:45.552Z,227.90
2022-11-13T04:03:13.364Z,237.27
2022-11-13T04:05:41.293Z,242.53
2022-11-13T04:08:10.487Z,240.37
2022-11-13T04:10:38.156Z,217.17
2022-11-13T04:13:05.793Z,252.50
2022-11-13T04:15:33.464Z,234.90
2022-11-13T04:18:01.138Z,250.67
2022-11-13T04:20:28.834Z,218.43
2022-11-13T04:22:57.016Z,232.70
2022-11-13T04:25:26.096Z,208.70
2022-11-13T04:27:54.327Z,222.73
2022-11-13T04:30:22.007Z,253.97
2022-11-13T04:32:49.634Z,246.70
2022-11-13T04:35:17.339Z,247.23
2022-11-13T04:37:45.012Z,272.33
2022-11-13T04:40:13.068Z,249.93
2022-11-13T04:42:50.886Z,255.93
2022-11-13T04:45:19.678Z,265.60
2022-11-13T04:47:47.544Z,249.77
2022-11-13T04:50:16.534Z,228.27
2022-11-13T04:52:44.753Z,250.33
2022-11-13T04:55:12.891Z,241.03
2022-11-13T04:57:42.034Z,220.40
2022-11-13T05:00:11.066Z,219.27
2022-11-13T05:02:38.755Z,242.93
2022-11-13T05:05:07.176Z,242.53
2022-11-13T05:07:34.835Z,217.50
2022-11-13T05:10:02.495Z,250.97
2022-11-13T05:12:30.171Z,247.80
2022-11-13T05:14:59.146Z,235.03
2022-11-13T05:17:26.867Z,245.40
2022-11-13T05:19:54.630Z,244.20
2022-11-13T05:22:22.300Z,233.50
2022-11-13T05:24:49.917Z,234.97
2022-11-13T05:27:18.026Z,250.33
2022-11-13T05:29:45.742Z,248.00
2022-11-13T05:32:15.060Z,244.50
2022-11-13T05:34:42.744Z,236.83
2022-11-13T05:37:10.375Z,246.57
2022-11-13T05:39:38.024Z,242.10
2022-11-13T05:42:06.735Z,213.47
2022-11-13T05:44:34.462Z,236.33
2022-11-13T05:47:02.128Z,224.50
2022-11-13T05:49:31.123Z,249.00
2022-11-13T05:51:58.772Z,227.53
2022-11-13T05:54:26.418Z,236.97
2022-11-13T05:56:54.048Z,216.93
2022-11-13T05:59:21.716Z,240.07
2022-11-13T06:01:49.382Z,195.10
2022-11-13T06:04:17.080Z,240.10
2022-11-13T06:06:46.106Z,221.93
2022-11-13T06:09:17.158Z,225.77
2022-11-13T06:11:45.128Z,244.67
2022-11-13T06:14:12.789Z,242.17
2022-11-13T06:16:40.957Z,238.90
2022-11-13T06:19:11.003Z,208.53
2022-11-13T06:21:40.841Z,244.70
2022-11-13T06:24:12.711Z,225.00
2022-11-13T06:26:40.688Z,242.47
2022-11-13T06:29:10.696Z,236.77
2022-11-13T06:31:38.744Z,235.80
2022-11-13T06:34:07.295Z,239.33
2022-11-13T06:36:36.250Z,238.13
2022-11-13T06:39:07.009Z,249.27
2022-11-13T06:41:36.291Z,241.70
2022-11-13T06:44:03.982Z,241.57
2022-11-13T06:46:31.955Z,215.40
2022-11-13T06:48:59.843Z,247.73
2022-11-13T06:51:28.912Z,253.40
2022-11-13T06:53:56.935Z,227.60
2022-11-13T06:56:25.197Z,233.20
2022-11-13T06:58:54.977Z,248.63
2022-11-13T07:01:24.376Z,245.33
2022-11-13T07:03:52.119Z,246.50
2022-11-13T07:06:21.808Z,254.43
2022-11-13T07:08:49.576Z,254.17
2022-11-13T07:11:18.382Z,232.07
2022-11-13T07:13:46.178Z,199.93
2022-11-13T07:16:18.010Z,233.93
2022-11-13T07:18:46.168Z,264.90
2022-11-13T07:21:13.903Z,225.00
2022-11-13T07:23:43.312Z,243.67
2022-11-13T07:26:57.832Z,239.37
2022-11-13T07:29:25.485Z,239.13
2022-11-13T07:31:53.499Z,240.57
2022-11-13T07:34:21.178Z,256.67
2022-11-13T07:36:48.795Z,244.70
2022-11-13T07:39:16.438Z,252.10
2022-11-13T07:41:44.145Z,242.60
2022-11-13T07:44:27.272Z,228.13
2022-11-13T07:47:00.740Z,243.63
2022-11-13T07:49:28.396Z,245.37
2022-11-13T07:51:56.025Z,217.57
2022-11-13T07:54:23.687Z,208.80
2022-11-13T07:56:51.347Z,204.37
2022-11-13T07:59:20.323Z,232.13
2022-11-13T08:01:48.067Z,207.43
2022-11-13T08:04:15.688Z,221.63
2022-11-13T08:06:43.483Z,253.13
2022-11-13T08:09:11.168Z,240.50
2022-11-13T08:11:38.866Z,219.97
2022-11-13T08:14:06.530Z,208.80
2022-11-13T08:16:35.595Z,244.07
2022-11-13T08:19:03.401Z,249.07
2022-11-13T08:21:31.371Z,247.20
2022-11-13T08:23:59.090Z,254.33
2022-11-13T08:26:26.795Z,244.07
2022-11-13T08:28:54.445Z,251.70
2022-11-13T08:31:22.097Z,261.97
2022-11-13T08:33:51.069Z,254.93
2022-11-13T08:36:18.727Z,251.07
2022-11-13T08:38:46.371Z,289.17
2022-11-13T08:41:14.012Z,216.33
2022-11-13T08:43:41.665Z,254.67
2022-11-13T08:46:09.341Z,256.37
2022-11-13T08:48:37.696Z,248.23
2022-11-13T08:51:07.047Z,263.23
2022-11-13T08:53:34.677Z,252.27
2022-11-13T08:56:02.963Z,245.23
2022-11-13T08:58:30.940Z,255.07
2022-11-13T09:01:01.507Z,254.30
2022-11-13T09:03:29.248Z,263.43
2022-11-13T09:05:56.948Z,294.37
2022-11-13T09:08:26.199Z,272.40
2022-11-13T09:10:54.152Z,241.17
2022-11-13T09:13:21.772Z,235.40
2022-11-13T09:15:49.442Z,229.17
2022-11-13T09:18:17.065Z,234.40
2022-11-13T09:20:44.801Z,276.30
2022-11-13T09:23:12.484Z,269.50
2022-11-13T09:25:41.532Z,234.43
2022-11-13T09:28:09.832Z,275.20
2022-11-13T09:30:39.045Z,227.93
2022-11-13T09:33:07.436Z,248.73
2022-11-13T09:35:35.120Z,250.77
2022-11-13T09:38:07.923Z,251.70
2022-11-13T09:40:43.287Z,228.30
2022-11-13T09:43:21.517Z,269.90
2022-11-13T09:45:49.539Z,245.77
2022-11-13T09:48:25.268Z,237.20
2022-11-13T09:50:53.482Z,245.87
2022-11-13T09:53:21.323Z,289.17
2022-11-13T09:55:58.086Z,244.53
2022-11-13T09:58:32.405Z,250.07
2022-11-13T10:01:01.700Z,251.20
2022-11-13T10:06:30.609Z,241.13
2022-11-13T10:08:59.620Z,245.23
2022-11-13T10:11:39.449Z,249.60
2022-11-13T10:14:19.169Z,253.97
2022-11-13T10:16:50.440Z,250.23
2022-11-13T10:19:22.768Z,269.83
2022-11-13T10:22:07.813Z,254.80
2022-11-13T10:24:42.985Z,244.47
2022-11-13T10:27:13.299Z,259.83
2022-11-13T10:29:46.184Z,267.93
2022-11-13T10:32:18.721Z,262.23
2022-11-13T10:34:50.189Z,254.77
2022-11-13T10:37:28.620Z,263.90
2022-11-13T10:39:56.253Z,258.03
2022-11-13T10:42:29.648Z,251.67
2022-11-13T10:44:59.345Z,265.67
2022-11-13T10:47:56.669Z,270.80
2022-11-13T10:50:21.533Z,258.80
2022-11-13T10:52:50.555Z,269.23
2022-11-13T10:55:24.257Z,266.77
2022-11-13T10:58:01.352Z,261.83
2022-11-13T11:00:32.918Z,271.03
2022-11-13T11:03:00.700Z,273.57
2022-11-13T11:05:29.706Z,261.33
2022-11-13T11:07:58.219Z,269.37
2022-11-13T11:10:32.053Z,261.23
2022-11-13T11:13:04.476Z,284.57
2022-11-13T11:15:41.053Z,267.20
2022-11-13T11:18:20.199Z,274.20
2022-11-13T11:20:50.948Z,280.03
2022-11-13T11:23:24.349Z,272.43
2022-11-13T11:25:55.976Z,279.23
2022-11-13T11:28:31.453Z,269.57
2022-11-13T11:31:06.184Z,262.10
2022-11-13T11:33:36.313Z,268.00
2022-11-13T11:36:09.716Z,265.60
2022-11-13T11:38:43.624Z,274.53
2022-11-13T11:41:16.904Z,275.37
2022-11-13T11:43:49.944Z,279.33
2022-11-13T11:46:23.394Z,265.40
2022-11-13T11:48:51.836Z,283.23
2022-11-13T11:51:25.437Z,269.70
2022-11-13T11:54:31.365Z,272.73
2022-11-13T11:57:02.672Z,273.23
2022-11-13T11:59:38.483Z,275.60
2022-11-13T12:02:36.158Z,271.23
2022-11-13T12:05:20.366Z,278.50
2022-11-13T12:07:56.488Z,278.37
2022-11-13T12:10:31.245Z,283.23
2022-11-13T12:13:14.576Z,295.77
2022-11-13T12:15:50.947Z,319.07
2022-11-13T12:18:28.821Z,253.13
2022-11-13T12:21:03.700Z,267.63
2022-11-13T12:23:38.534Z,148.83
2022-11-13T12:26:13.552Z,183.23
2022-11-13T12:30:15.365Z,171.70
2022-11-13T12:33:00.754Z,131.37
2022-11-13T12:35:28.923Z,129.07
2022-11-13T12:37:59.147Z,143.67
2022-11-13T12:40:32.710Z,135.20
2022-11-13T12:43:24.104Z,152.93
2022-11-13T12:45:54.456Z,119.40
2022-11-13T12:48:28.191Z,144.00
2022-11-13T12:51:01.140Z,157.20
2022-11-13T12:53:31.135Z,114.73
2022-11-13T12:56:00.924Z,123.70
2022-11-13T12:58:30.865Z,122.40
2022-11-13T13:01:03.424Z,209.00
2022-11-13T13:03:47.009Z,120.13
2022-11-13T13:06:25.239Z,127.07
2022-11-13T13:09:04.405Z,127.50
2022-11-13T13:11:39.544Z,115.30
2022-11-13T13:14:21.693Z,112.53
2022-11-13T13:16:50.696Z,188.73
2022-11-13T13:19:26.808Z,115.27
2022-11-13T13:21:54.618Z,95.43
2022-11-13T13:24:30.176Z,108.90
2022-11-13T13:26:57.962Z,96.30
2022-11-13T13:29:27.076Z,191.13
2022-11-13T13:32:10.063Z,113.90
2022-11-13T13:34:47.707Z,103.77
2022-11-13T13:37:23.398Z,114.53
2022-11-13T13:39:58.442Z,102.23
2022-11-13T13:42:42.298Z,112.67
2022-11-13T13:45:24.932Z,101.93
2022-11-13T13:47:56.089Z,100.13
2022-11-13T13:50:26.263Z,110.37
2022-11-13T13:52:55.943Z,98.13
2022-11-13T13:55:28.855Z,128.00
2022-11-13T13:57:57.741Z,84.03
2022-11-13T14:00:26.984Z,104.77
2022-11-13T14:02:56.004Z,100.40
2022-11-13T14:05:31.391Z,96.97
2022-11-13T14:07:59.698Z,180.27
2022-11-13T14:10:28.925Z,112.23
2022-11-13T14:12:57.517Z,102.20
2022-11-13T14:15:28.296Z,103.27
2022-11-13T14:18:08.444Z,102.30
2022-11-13T14:20:41.936Z,96.13
2022-11-13T14:23:12.419Z,111.93
2022-11-13T14:25:40.297Z,110.30
2022-11-13T14:28:15.060Z,140.23
2022-11-13T14:30:42.896Z,112.73
2022-11-13T14:33:14.883Z,103.40
2022-11-13T14:35:42.572Z,142.27
2022-11-13T14:38:20.248Z,109.07
2022-11-13T14:40:49.156Z,120.00
2022-11-13T14:43:21.692Z,111.30
2022-11-13T14:45:58.165Z,113.63
2022-11-13T14:48:28.630Z,108.10
2022-11-13T14:50:58.179Z,111.10
2022-11-13T14:53:31.569Z,84.70
2022-11-13T14:56:02.503Z,100.93
2022-11-13T14:58:31.677Z,111.37
2022-11-13T15:01:00.140Z,207.80
2022-11-13T15:03:29.713Z,142.57
2022-11-13T15:05:57.616Z,202.97
2022-11-13T15:08:25.303Z,119.23
2022-11-13T15:10:53.227Z,189.47
2022-11-13T15:13:20.885Z,103.50
2022-11-13T15:15:48.530Z,120.73
2022-11-13T15:18:18.240Z,137.70
2022-11-13T15:20:47.428Z,135.00
2022-11-13T15:23:16.936Z,141.37
2022-11-13T15:25:44.648Z,152.97
2022-11-13T15:28:12.296Z,148.70
2022-11-13T15:30:39.957Z,155.50
2022-11-13T15:33:14.307Z,144.43
2022-11-13T15:35:43.090Z,141.07
2022-11-13T15:38:12.545Z,140.17
2022-11-13T15:40:40.445Z,129.47
2022-11-13T15:43:13.084Z,138.90
2022-11-13T15:45:44.183Z,158.87
2022-11-13T15:48:13.499Z,104.83
2022-11-13T15:50:41.216Z,127.43
2022-11-13T15:53:10.007Z,159.57
2022-11-13T15:55:40.768Z,143.97
2022-11-13T15:58:14.986Z,158.63
2022-11-13T16:00:42.916Z,171.00
2022-11-13T16:03:12.049Z,151.77
2022-11-13T16:05:39.812Z,169.57
2022-11-13T16:08:12.603Z,163.83
2022-11-13T16:10:41.613Z,148.70
2022-11-13T16:13:09.268Z,153.87
2022-11-13T16:15:36.896Z,146.43
2022-11-13T16:18:04.698Z,216.97
2022-11-13T16:20:32.483Z,144.70
2022-11-13T16:23:00.169Z,177.97
2022-11-13T16:25:27.840Z,179.13
2022-11-13T16:27:56.865Z,178.83
2022-11-13T16:30:25.320Z,201.17
2022-11-13T16:32:53.234Z,180.20
2022-11-13T16:35:21.572Z,207.70
2022-11-13T16:37:49.270Z,200.50
2022-11-13T16:40:21.089Z,276.53
2022-11-13T16:42:48.785Z,268.57
2022-11-13T16:45:17.980Z,260.53
2022-11-13T16:47:46.399Z,216.27
2022-11-13T16:50:15.583Z,275.37
2022-11-13T16:52:43.331Z,193.37
2022-11-13T16:55:11.244Z,288.70
2022-11-13T16:57:39.118Z,290.43
2022-11-13T17:00:08.378Z,280.47
2022-11-13T17:02:37.523Z,299.23
2022-11-13T17:05:05.936Z,283.07
2022-11-13T17:07:33.658Z,281.00
2022-11-13T17:10:29.814Z,286.13
2022-11-13T17:12:52.058Z,285.73
2022-11-13T17:15:20.236Z,282.53
2022-11-13T17:17:49.456Z,284.10
2022-11-13T17:20:19.392Z,353.23
2022-11-13T17:22:49.737Z,286.03
2022-11-13T17:25:18.518Z,278.87
2022-11-13T17:27:46.367Z,303.70
2022-11-13T17:30:15.162Z,288.33
2022-11-13T17:32:43.793Z,292.87
2022-11-13T17:35:14.399Z,290.73
2022-11-13T17:37:42.394Z,321.03
2022-11-13T17:40:11.306Z,293.53
2022-11-13T17:42:38.967Z,306.43
2022-11-13T17:45:07.661Z,280.87
2022-11-13T17:47:35.406Z,314.53
2022-11-13T17:50:07.290Z,301.10
2022-11-13T17:52:36.956Z,301.87
2022-11-13T17:55:07.271Z,305.07
2022-11-13T17:57:34.996Z,308.33
2022-11-13T18:00:02.755Z,299.97
2022-11-13T18:02:30.572Z,298.70
2022-11-13T18:05:01.153Z,296.53
2022-11-13T18:07:28.977Z,314.47
2022-11-13T18:09:58.279Z,288.50
2022-11-13T18:12:25.905Z,289.07
2022-11-13T18:14:53.579Z,307.17
2022-11-13T18:17:22.058Z,303.57
2022-11-13T18:19:50.544Z,301.00
2022-11-13T18:22:18.296Z,305.03
2022-11-13T18:24:45.994Z,310.93
2022-11-13T18:27:15.287Z,292.00
2022-11-13T18:29:42.929Z,291.40
2022-11-13T18:32:10.654Z,292.90
2022-11-13T18:34:38.292Z,302.63
2022-11-13T18:37:06.004Z,296.53
2022-11-13T18:39:33.643Z,285.47
2022-11-13T18:42:01.302Z,286.53
2022-11-13T18:44:30.452Z,292.37
2022-11-13T18:46:58.128Z,289.97
2022-11-13T18:49:25.808Z,283.97
2022-11-13T18:51:53.454Z,354.47
2022-11-13T18:54:21.164Z,333.27
2022-11-13T18:56:48.854Z,291.17
2022-11-13T18:59:16.546Z,294.37
2022-11-13T19:01:45.598Z,288.50
2022-11-13T19:04:24.228Z,279.97
2022-11-13T19:06:52.448Z,274.13
2022-11-13T19:09:20.328Z,279.50
2022-11-13T19:11:48.226Z,288.73
2022-11-13T19:14:17.354Z,290.33
2022-11-13T19:16:46.488Z,279.43
2022-11-13T19:19:17.387Z,269.20
2022-11-13T19:21:45.683Z,278.10
2022-11-13T19:24:14.852Z,270.40
2022-11-13T19:26:43.047Z,319.10
2022-11-13T19:29:11.048Z,265.03
2022-11-13T19:31:38.752Z,278.27
2022-11-13T19:34:08.815Z,267.63
2022-11-13T19:36:37.441Z,285.73
2022-11-13T19:39:05.935Z,270.70
2022-11-13T19:41:33.775Z,257.27
2022-11-13T19:44:01.413Z,274.23
2022-11-13T19:46:31.844Z,268.07
2022-11-13T19:48:59.526Z,268.67
2022-11-13T19:51:28.596Z,248.03
2022-11-13T19:53:58.131Z,267.17
2022-11-13T19:56:27.117Z,260.37
2022-11-13T19:58:55.444Z,262.90
2022-11-13T20:01:24.637Z,260.40
2022-11-13T20:03:55.119Z,253.37
2022-11-13T20:06:22.926Z,260.93
2022-11-13T20:08:51.924Z,255.07
2022-11-13T20:11:20.384Z,276.00
2022-11-13T20:13:48.281Z,290.93
2022-11-13T20:16:17.318Z,267.77
2022-11-13T20:18:45.318Z,323.43
2022-11-13T20:21:13.040Z,247.00
2022-11-13T20:23:40.729Z,275.13
2022-11-13T20:26:13.592Z,243.37
2022-11-13T20:28:41.270Z,312.37
2022-11-13T20:31:14.164Z,245.47
2022-11-13T20:33:41.813Z,255.57
2022-11-13T20:36:10.584Z,240.87
2022-11-13T20:38:38.392Z,259.43
2022-11-13T20:41:06.629Z,241.33
2022-11-13T20:43:35.657Z,289.87
2022-11-13T20:46:04.162Z,246.63
2022-11-13T20:48:32.124Z,268.60
2022-11-13T20:51:06.239Z,266.80
2022-11-13T20:53:35.683Z,265.83
2022-11-13T20:56:03.465Z,292.17
2022-11-13T20:58:31.689Z,253.17
2022-11-13T21:01:04.648Z,285.10
2022-11-13T21:03:34.938Z,291.63
2022-11-13T21:06:06.726Z,249.63
2022-11-13T21:08:34.689Z,243.37
2022-11-13T21:11:02.909Z,241.17
2022-11-13T21:13:30.769Z,245.53
2022-11-13T21:15:58.476Z,245.07
2022-11-13T21:18:27.668Z,250.47
2022-11-13T21:20:55.594Z,241.63
2022-11-13T21:23:23.259Z,243.13
2022-11-13T21:25:59.539Z,247.67
2022-11-13T21:28:32.300Z,237.40
2022-11-13T21:31:02.737Z,257.60
2022-11-13T21:33:31.814Z,229.07
2022-11-13T21:36:05.235Z,242.70
2022-11-13T21:38:32.884Z,241.70
2022-11-13T21:41:14.717Z,245.97
2022-11-13T21:43:42.380Z,251.73
2022-11-13T21:46:10.058Z,245.63
2022-11-13T21:48:39.490Z,243.50
2022-11-13T21:51:07.432Z,233.33
2022-11-13T21:53:35.113Z,203.77
2022-11-13T21:56:02.816Z,229.30
2022-11-13T21:58:31.931Z,227.00
2022-11-13T22:00:59.986Z,206.00
2022-11-13T22:03:28.480Z,242.27
2022-11-13T22:06:19.528Z,258.83
2022-11-13T22:08:48.780Z,245.53
2022-11-13T22:11:16.441Z,238.50
2022-11-13T22:13:44.128Z,208.63
2022-11-13T22:16:12.852Z,209.87
2022-11-13T22:18:40.632Z,246.53
2022-11-13T22:21:11.308Z,246.00
2022-11-13T22:23:40.807Z,216.20
2022-11-13T22:26:10.079Z,235.47
2022-11-13T22:28:39.429Z,242.67
2022-11-13T22:31:07.631Z,243.63
2022-11-13T22:33:37.059Z,249.60
2022-11-13T22:36:05.887Z,240.43
2022-11-13T22:38:34.395Z,244.00
2022-11-13T22:41:07.945Z,243.87
2022-11-13T22:43:37.205Z,233.90
2022-11-13T22:46:06.330Z,235.30
2022-11-13T22:48:35.253Z,238.73
2022-11-13T22:51:04.225Z,227.07
2022-11-13T22:53:31.897Z,219.47
2022-11-13T22:56:03.492Z,213.17
2022-11-13T22:58:32.664Z,197.90
2022-11-13T23:01:07.736Z,224.53
2022-11-13T23:03:38.196Z,199.70
2022-11-13T23:06:06.388Z,210.33
2022-11-13T23:08:38.555Z,241.53
2022-11-13T23:11:06.704Z,208.93
2022-11-13T23:13:35.783Z,212.13
2022-11-13T23:16:03.693Z,236.00
2022-11-13T23:18:32.130Z,228.37
2022-11-13T23:21:00.309Z,193.20
2022-11-13T23:23:27.945Z,206.43
2022-11-13T23:25:55.640Z,225.67
2022-11-13T23:28:23.340Z,236.27
2022-11-13T23:30:52.364Z,208.30
2022-11-13T23:33:20.004Z,230.33
2022-11-13T23:35:47.711Z,237.77
2022-11-13T23:38:15.398Z,256.87
2022-11-13T23:40:43.188Z,232.33
2022-11-13T23:43:10.868Z,247.17
2022-11-13T23:45:39.539Z,235.57
2022-11-13T23:48:08.731Z,241.20
2022-11-13T23:50:37.688Z,234.00
2022-11-13T23:53:05.436Z,209.63
2022-11-13T23:55:33.214Z,224.70
2022-11-13T23:58:01.651Z,254.50
